Time;durP1;ratioP1;P1;durP2;ratioP2;P2;SDS_P1;SDS_P2;PMS_P1;PMS_P2;Temp;Humidity;BMP_temperature;BMP_pressure;BME280_temperature;BME280_humidity;BME280_pressure;Samples;Min_cycle;Max_cycle;Signal;HPM_P1;HPM_P2
2021/12/07 00:01:17;;;;;;;9.02;5.30;;;;;;;;;;10417948;28;20063;-79
2021/12/07 00:06:17;;;;;;;11.40;5.80;;;;;;;;;;10419192;28;20383;-79
2021/12/07 00:11:18;;;;;;;9.10;5.00;;;;;;;;;;10415240;28;20124;-79
2021/12/07 00:16:19;;;;;;;8.13;5.35;;;;;;;;;;10416099;28;20037;-79
2021/12/07 00:21:20;;;;;;;8.73;4.80;;;;;;;;;;10418532;28;20021;-79
2021/12/07 00:26:21;;;;;;;8.55;4.75;;;;;;;;;;10418274;28;20091;-78
2021/12/07 00:31:39;;;;;;;12.05;5.32;;;;;;;;;;10607133;22;20582;-79
2021/12/07 00:36:44;;;;;;;9.50;4.65;;;;;;;;;;10374663;28;20089;-80
2021/12/07 00:41:44;;;;;;;9.00;5.00;;;;;;;;;;10377868;28;20026;-79
2021/12/07 00:46:46;;;;;;;11.18;4.75;;;;;;;;;;10337147;28;20376;-79
2021/12/07 00:51:46;;;;;;;8.05;5.00;;;;;;;;;;10351141;28;20041;-80
2021/12/07 00:56:47;;;;;;;10.27;4.40;;;;;;;;;;10374948;28;20034;-79
2021/12/07 01:01:47;;;;;;;8.50;4.10;;;;;;;;;;10376041;28;20996;-79
2021/12/07 01:07:01;;;;;;;8.23;4.30;;;;;;;;;;10376305;28;20133;-79
2021/12/07 01:28:12;;;;;;;8.10;4.60;;;;;;;;;;10375542;28;20022;-80
2021/12/07 01:59:35;;;;;;;7.60;4.00;;;;;;;;;;10373478;28;20046;-79
2021/12/07 02:04:37;;;;;;;7.90;4.10;;;;;;;;;;10375219;28;20083;-80
2021/12/07 02:09:41;;;;;;;5.35;3.42;;;;;;;;;;10373371;28;20056;-82
2021/12/07 02:14:42;;;;;;;6.38;4.18;;;;;;;;;;10375035;28;20029;-81
2021/12/07 02:19:43;;;;;;;5.43;3.63;;;;;;;;;;10375151;28;20030;-81
2021/12/07 02:24:43;;;;;;;5.35;3.83;;;;;;;;;;10374054;28;20030;-81
2021/12/07 02:29:44;;;;;;;8.45;3.72;;;;;;;;;;10374013;28;20050;-81
2021/12/07 02:34:54;;;;;;;8.30;3.90;;;;;;;;;;10373172;28;20044;-83
2021/12/07 02:39:55;;;;;;;8.70;4.03;;;;;;;;;;10373071;28;20033;-83
2021/12/07 02:44:56;;;;;;;5.03;3.53;;;;;;;;;;10372715;28;20472;-82
2021/12/07 02:49:56;;;;;;;6.30;3.87;;;;;;;;;;10372449;28;20034;-81
2021/12/07 02:54:57;;;;;;;8.83;3.80;;;;;;;;;;10373263;28;20444;-82
2021/12/07 03:00:03;;;;;;;5.38;3.47;;;;;;;;;;10371812;28;20499;-82
2021/12/07 03:05:15;;;;;;;5.30;3.53;;;;;;;;;;10372869;28;20030;-82
2021/12/07 03:26:22;;;;;;;4.13;3.05;;;;;;;;;;10379477;28;20004;-81
2021/12/07 03:31:25;;;;;;;4.15;3.40;;;;;;;;;;10376190;28;20128;-81
2021/12/07 03:36:27;;;;;;;4.93;3.15;;;;;;;;;;10374748;28;20041;-81
2021/12/07 03:41:27;;;;;;;5.75;3.33;;;;;;;;;;10376533;28;20448;-81
2021/12/07 03:46:28;;;;;;;4.53;3.42;;;;;;;;;;10378082;28;20026;-81
2021/12/07 03:51:29;;;;;;;5.50;3.17;;;;;;;;;;10377727;28;20030;-81
2021/12/07 03:56:30;;;;;;;5.03;3.33;;;;;;;;;;10378549;28;20460;-81
2021/12/07 04:01:30;;;;;;;3.92;2.85;;;;;;;;;;10377285;28;20076;-81
2021/12/07 04:06:31;;;;;;;3.92;2.92;;;;;;;;;;10377988;28;20057;-81
2021/12/07 04:11:32;;;;;;;4.93;3.05;;;;;;;;;;10376836;28;20038;-83
2021/12/07 04:16:32;;;;;;;4.93;2.87;;;;;;;;;;10377814;28;20033;-83
2021/12/07 04:21:33;;;;;;;5.93;3.20;;;;;;;;;;10376419;28;20539;-83
2021/12/07 04:26:34;;;;;;;4.00;2.93;;;;;;;;;;10373534;28;20526;-83
2021/12/07 04:31:35;;;;;;;3.72;2.70;;;;;;;;;;10354944;28;20851;-82
2021/12/07 04:36:35;;;;;;;4.72;3.03;;;;;;;;;;10376317;28;20068;-81
2021/12/07 04:41:35;;;;;;;2.97;2.60;;;;;;;;;;10377087;28;20036;-82
2021/12/07 04:46:47;;;;;;;4.50;2.73;;;;;;;;;;10377032;28;20121;-81
2021/12/07 05:02:26;;;;;;;3.33;2.67;;;;;;;;;;10364788;28;20472;-82
2021/12/07 05:07:34;;;;;;;2.80;2.50;;;;;;;;;;10335119;28;20034;-82
2021/12/07 05:12:58;;;;;;;3.63;2.97;;;;;;;;;;10350297;28;20109;-81
2021/12/07 05:18:20;;;;;;;4.18;2.67;;;;;;;;;;10375332;28;20026;-80
2021/12/07 05:39:18;;;;;;;3.58;2.90;;;;;;;;;;10375518;28;20034;-80
2021/12/07 05:44:18;;;;;;;3.30;2.47;;;;;;;;;;10373720;28;20041;-82
2021/12/07 05:49:18;;;;;;;5.47;2.90;;;;;;;;;;10374275;28;20540;-82
2021/12/07 05:54:19;;;;;;;7.18;2.47;;;;;;;;;;10374444;28;20037;-80
2021/12/07 05:59:19;;;;;;;3.40;2.65;;;;;;;;;;10374722;28;20072;-80
2021/12/07 06:04:20;;;;;;;3.58;2.53;;;;;;;;;;10374304;28;20038;-81
2021/12/07 06:09:20;;;;;;;5.37;4.47;;;;;;;;;;10374655;28;20109;-81
2021/12/07 06:14:28;;;;;;;4.93;4.47;;;;;;;;;;10370875;28;20467;-78
2021/12/07 06:19:29;;;;;;;10.90;10.10;;;;;;;;;;10357536;28;20431;-79
2021/12/07 06:24:29;;;;;;;11.20;10.30;;;;;;;;;;10350930;28;20040;-80
2021/12/07 06:29:30;;;;;;;3.83;3.42;;;;;;;;;;10360833;28;20838;-79
2021/12/07 06:34:31;;;;;;;4.33;3.93;;;;;;;;;;10363640;28;20045;-78
2021/12/07 06:39:32;;;;;;;3.95;3.60;;;;;;;;;;10334836;28;20432;-82
2021/12/07 06:44:32;;;;;;;4.30;3.70;;;;;;;;;;10325320;28;20030;-79
2021/12/07 06:49:33;;;;;;;6.88;3.92;;;;;;;;;;10376124;28;20030;-86
2021/12/07 06:54:35;;;;;;;3.88;3.58;;;;;;;;;;10388713;28;20053;-90
2021/12/07 06:59:35;;;;;;;6.30;3.83;;;;;;;;;;10390048;28;20029;-84
2021/12/07 07:04:36;;;;;;;4.53;3.83;;;;;;;;;;10376517;28;20522;-83
2021/12/07 07:09:36;;;;;;;5.20;3.88;;;;;;;;;;10372931;28;20538;-83
2021/12/07 07:14:36;;;;;;;6.07;3.88;;;;;;;;;;10375113;28;20061;-85
2021/12/07 07:19:37;;;;;;;3.83;3.47;;;;;;;;;;10386316;28;20030;-82
2021/12/07 07:24:38;;;;;;;6.30;2.22;;;;;;;;;;10379056;28;20966;-81
2021/12/07 07:29:38;;;;;;;8.70;2.33;;;;;;;;;;10373754;28;20456;-82
2021/12/07 07:34:39;;;;;;;8.00;2.92;;;;;;;;;;10382844;28;20042;-81
2021/12/07 07:39:40;;;;;;;5.85;2.97;;;;;;;;;;10383365;28;20041;-82
2021/12/07 07:44:41;;;;;;;15.15;2.47;;;;;;;;;;10382672;28;20030;-81
2021/12/07 07:49:41;;;;;;;4.30;2.40;;;;;;;;;;10381207;28;20034;-80
2021/12/07 07:54:42;;;;;;;7.07;2.90;;;;;;;;;;10397334;28;20036;-82
2021/12/07 07:59:42;;;;;;;9.77;3.20;;;;;;;;;;10366941;28;20444;-82
2021/12/07 08:04:43;;;;;;;7.03;2.83;;;;;;;;;;10362396;28;20030;-81
2021/12/07 08:09:43;;;;;;;4.53;2.63;;;;;;;;;;10371284;28;20057;-81
2021/12/07 08:14:44;;;;;;;4.65;2.65;;;;;;;;;;10356558;28;20034;-81
2021/12/07 08:19:44;;;;;;;5.83;2.60;;;;;;;;;;10370986;28;20018;-82
2021/12/07 08:24:45;;;;;;;2.73;2.40;;;;;;;;;;10345139;28;20476;-81
2021/12/07 08:29:46;;;;;;;10.13;3.22;;;;;;;;;;10356255;28;20471;-81
2021/12/07 08:34:46;;;;;;;4.82;2.50;;;;;;;;;;10364586;28;20477;-80
2021/12/07 08:39:47;;;;;;;5.53;3.00;;;;;;;;;;10356261;28;20412;-81
2021/12/07 08:44:48;;;;;;;4.70;3.03;;;;;;;;;;10368669;28;20033;-82
2021/12/07 08:49:54;;;;;;;5.82;2.83;;;;;;;;;;10370948;28;20361;-81
2021/12/07 09:00:24;;;;;;;7.25;3.17;;;;;;;;;;10337679;28;20125;-82
2021/12/07 09:05:25;;;;;;;4.20;2.90;;;;;;;;;;10366936;28;20036;-82
2021/12/07 09:10:25;;;;;;;8.18;3.08;;;;;;;;;;10349235;28;20099;-82
2021/12/07 09:15:26;;;;;;;4.72;3.20;;;;;;;;;;10339563;28;20026;-82
2021/12/07 09:20:26;;;;;;;3.40;2.53;;;;;;;;;;10364354;28;20030;-81
2021/12/07 09:25:27;;;;;;;4.72;2.83;;;;;;;;;;10380081;28;20113;-82
2021/12/07 09:30:28;;;;;;;7.78;2.90;;;;;;;;;;10373851;28;20524;-84
2021/12/07 09:35:28;;;;;;;5.55;2.97;;;;;;;;;;10370422;28;20132;-81
2021/12/07 09:40:29;;;;;;;4.25;3.10;;;;;;;;;;10351178;28;20034;-82
2021/12/07 09:45:31;;;;;;;6.85;3.15;;;;;;;;;;10358238;28;20034;-81
2021/12/07 09:50:35;;;;;;;7.43;2.70;;;;;;;;;;10345151;28;20134;-81
2021/12/07 09:55:38;;;;;;;6.43;2.92;;;;;;;;;;10336677;28;20031;-80
2021/12/07 10:00:38;;;;;;;4.60;2.83;;;;;;;;;;10336769;28;20061;-81
2021/12/07 10:05:40;;;;;;;5.30;2.70;;;;;;;;;;10376049;28;20061;-80
2021/12/07 10:10:48;;;;;;;4.07;2.72;;;;;;;;;;10380485;28;20141;-81
2021/12/07 10:15:50;;;;;;;4.60;3.00;;;;;;;;;;10361935;28;20045;-81
2021/12/07 10:20:58;;;;;;;3.60;2.63;;;;;;;;;;10337199;28;20384;-80
2021/12/07 10:26:12;;;;;;;6.07;3.28;;;;;;;;;;10349429;28;20026;-82
2021/12/07 10:31:17;;;;;;;4.72;2.90;;;;;;;;;;10356309;28;20140;-83
2021/12/07 10:36:23;;;;;;;3.53;2.65;;;;;;;;;;10365236;28;20034;-80
2021/12/07 10:41:25;;;;;;;4.57;2.63;;;;;;;;;;10357128;28;20026;-82
2021/12/07 10:46:34;;;;;;;12.07;2.90;;;;;;;;;;10358555;28;20037;-82
2021/12/07 10:51:34;;;;;;;4.17;3.00;;;;;;;;;;10354185;28;20026;-82
2021/12/07 10:56:38;;;;;;;5.50;3.05;;;;;;;;;;10364744;28;20041;-82
2021/12/07 11:01:41;;;;;;;6.00;2.58;;;;;;;;;;10362388;28;20049;-84
2021/12/07 11:07:19;;;;;;;6.32;3.00;;;;;;;;;;10376861;28;20484;-82
2021/12/07 11:12:20;;;;;;;4.78;2.50;;;;;;;;;;10342325;28;20042;-82
2021/12/07 11:17:24;;;;;;;3.10;2.45;;;;;;;;;;10360972;28;20448;-84
2021/12/07 11:22:28;;;;;;;3.13;2.60;;;;;;;;;;10356312;28;20116;-83
2021/12/07 11:32:54;;;;;;;4.35;2.58;;;;;;;;;;10383501;28;20049;-82
2021/12/07 11:37:56;;;;;;;3.88;2.42;;;;;;;;;;10384097;28;20038;-83
2021/12/07 11:42:57;;;;;;;10.15;3.13;;;;;;;;;;10381536;28;20038;-83
2021/12/07 11:48:02;;;;;;;3.65;2.75;;;;;;;;;;10358661;28;20029;-81
2021/12/07 11:53:05;;;;;;;4.78;2.80;;;;;;;;;;10385680;28;20044;-83
2021/12/07 11:58:07;;;;;;;5.90;2.33;;;;;;;;;;10385212;28;20030;-82
2021/12/07 12:03:14;;;;;;;3.65;2.58;;;;;;;;;;10382640;28;20030;-82
2021/12/07 12:08:19;;;;;;;4.57;2.55;;;;;;;;;;10367677;28;20030;-83
2021/12/07 12:13:43;;;;;;;3.70;2.00;;;;;;;;;;10372231;28;20088;-82
2021/12/07 12:18:59;;;;;;;4.13;2.50;;;;;;;;;;10351741;28;20088;-81
2021/12/07 12:24:07;;;;;;;4.10;2.42;;;;;;;;;;10363236;28;20077;-81
2021/12/07 12:29:20;;;;;;;4.10;2.50;;;;;;;;;;10529837;23;20097;-83
2021/12/07 12:34:24;;;;;;;3.83;2.28;;;;;;;;;;10331699;28;20038;-83
2021/12/07 12:39:40;;;;;;;5.88;2.28;;;;;;;;;;10299142;28;20038;-83
2021/12/07 12:44:40;;;;;;;4.90;2.80;;;;;;;;;;10310622;28;20090;-82
2021/12/07 12:49:43;;;;;;;3.27;2.30;;;;;;;;;;10308494;28;20039;-83
2021/12/07 12:54:45;;;;;;;2.75;2.30;;;;;;;;;;10326039;28;20463;-81
2021/12/07 12:59:47;;;;;;;4.07;2.42;;;;;;;;;;10316025;28;20022;-82
2021/12/07 13:05:04;;;;;;;3.60;2.30;;;;;;;;;;10337055;28;20117;-83
2021/12/07 13:10:05;;;;;;;3.33;2.08;;;;;;;;;;10336442;28;20030;-82
2021/12/07 13:15:08;;;;;;;4.40;2.25;;;;;;;;;;10338956;28;20038;-83
2021/12/07 13:20:17;;;;;;;3.33;2.50;;;;;;;;;;10315999;28;20089;-83
2021/12/07 13:25:42;;;;;;;4.15;2.55;;;;;;;;;;10339268;28;20372;-83
2021/12/07 13:30:54;;;;;;;5.20;2.40;;;;;;;;;;10323593;28;20042;-82
2021/12/07 13:35:54;;;;;;;2.90;2.22;;;;;;;;;;10309975;28;20384;-82
2021/12/07 13:41:13;;;;;;;5.30;2.67;;;;;;;;;;10328916;28;20038;-84
2021/12/07 13:46:23;;;;;;;4.23;2.20;;;;;;;;;;10317680;28;20136;-84
2021/12/07 13:51:24;;;;;;;3.28;2.00;;;;;;;;;;10328290;28;21064;-85
2021/12/07 13:56:24;;;;;;;4.50;2.03;;;;;;;;;;10316307;28;20046;-81
2021/12/07 14:01:27;;;;;;;6.50;2.10;;;;;;;;;;10327221;28;20395;-82
2021/12/07 14:06:27;;;;;;;2.20;1.98;;;;;;;;;;10317022;28;20030;-81
2021/12/07 14:11:28;;;;;;;4.80;2.35;;;;;;;;;;10330862;28;20088;-80
2021/12/07 14:16:28;;;;;;;3.70;2.20;;;;;;;;;;10317939;28;20412;-81
2021/12/07 14:21:30;;;;;;;7.90;2.47;;;;;;;;;;10337284;28;20114;-81
2021/12/07 14:26:34;;;;;;;6.30;2.17;;;;;;;;;;10338878;28;20034;-81
2021/12/07 14:31:37;;;;;;;6.82;2.20;;;;;;;;;;10338541;28;20061;-81
2021/12/07 14:36:52;;;;;;;3.22;2.10;;;;;;;;;;10336675;28;20043;-81
2021/12/07 14:41:59;;;;;;;2.95;1.98;;;;;;;;;;10336180;28;20039;-82
2021/12/07 14:47:04;;;;;;;2.70;2.10;;;;;;;;;;10336262;28;20066;-82
2021/12/07 14:52:12;;;;;;;3.25;2.20;;;;;;;;;;10334546;28;20122;-82
2021/12/07 14:57:13;;;;;;;5.13;1.90;;;;;;;;;;10334185;28;20416;-83
2021/12/07 15:02:14;;;;;;;2.15;1.88;;;;;;;;;;10335250;28;20022;-82
2021/12/07 15:07:17;;;;;;;3.45;2.17;;;;;;;;;;10335467;28;20109;-82
2021/12/07 15:12:19;;;;;;;2.60;2.00;;;;;;;;;;10318559;28;20372;-82
2021/12/07 15:17:19;;;;;;;2.53;1.85;;;;;;;;;;10343527;28;20116;-82
2021/12/07 15:22:22;;;;;;;4.20;2.17;;;;;;;;;;10342911;28;20030;-82
2021/12/07 15:27:23;;;;;;;3.05;1.80;;;;;;;;;;10342849;28;20441;-81
2021/12/07 15:32:23;;;;;;;3.28;2.22;;;;;;;;;;10341601;28;20050;-81
2021/12/07 15:37:26;;;;;;;2.25;1.95;;;;;;;;;;10340323;28;20038;-81
2021/12/07 15:42:32;;;;;;;3.75;2.00;;;;;;;;;;10339791;28;20479;-81
2021/12/07 15:47:40;;;;;;;1.90;1.70;;;;;;;;;;10339739;28;20041;-81
2021/12/07 15:52:44;;;;;;;4.38;2.00;;;;;;;;;;10340738;28;20031;-81
2021/12/07 15:57:46;;;;;;;2.13;1.60;;;;;;;;;;10340109;28;20049;-81
2021/12/07 16:02:52;;;;;;;3.83;1.85;;;;;;;;;;10339985;28;20464;-82
2021/12/07 16:07:53;;;;;;;1.98;1.55;;;;;;;;;;10340598;28;20034;-82
2021/12/07 16:13:14;;;;;;;2.75;1.95;;;;;;;;;;10339911;28;20030;-81
2021/12/07 16:18:14;;;;;;;1.83;1.58;;;;;;;;;;10338837;28;20109;-81
2021/12/07 16:23:15;;;;;;;2.53;1.73;;;;;;;;;;10338443;28;20038;-80
2021/12/07 16:28:16;;;;;;;2.15;1.77;;;;;;;;;;10337836;28;20030;-80
2021/12/07 16:33:16;;;;;;;2.80;1.70;;;;;;;;;;10337498;28;20050;-80
2021/12/07 16:38:16;;;;;;;2.60;1.70;;;;;;;;;;10337764;28;20040;-80
2021/12/07 16:43:17;;;;;;;2.22;1.67;;;;;;;;;;10320447;28;20448;-81
2021/12/07 16:48:17;;;;;;;1.80;1.50;;;;;;;;;;10337322;28;20034;-81
2021/12/07 16:53:19;;;;;;;3.53;2.20;;;;;;;;;;10336692;28;20515;-80
2021/12/07 16:58:19;;;;;;;3.35;1.90;;;;;;;;;;10336855;28;20413;-80
2021/12/07 17:03:22;;;;;;;2.60;1.80;;;;;;;;;;10336327;28;20042;-81
2021/12/07 17:08:22;;;;;;;2.15;1.95;;;;;;;;;;10336110;28;20035;-80
2021/12/07 17:13:22;;;;;;;2.03;1.50;;;;;;;;;;10336715;28;20030;-80
2021/12/07 17:18:23;;;;;;;2.97;2.05;;;;;;;;;;10335911;28;20033;-80
2021/12/07 17:23:25;;;;;;;2.25;1.80;;;;;;;;;;10336123;28;20479;-81
2021/12/07 17:28:25;;;;;;;2.50;2.00;;;;;;;;;;10335570;28;20472;-81
2021/12/07 17:33:26;;;;;;;2.45;1.92;;;;;;;;;;10336499;28;20050;-80
2021/12/07 17:38:26;;;;;;;2.38;2.17;;;;;;;;;;10333967;28;20102;-81
2021/12/07 17:43:27;;;;;;;2.22;1.92;;;;;;;;;;10328846;28;20035;-81
2021/12/07 17:48:27;;;;;;;2.50;1.73;;;;;;;;;;10294976;28;20122;-81
2021/12/07 17:53:28;;;;;;;11.50;2.58;;;;;;;;;;10318908;28;20456;-82
2021/12/07 17:58:28;;;;;;;4.80;2.67;;;;;;;;;;10334709;28;20089;-86
2021/12/07 18:03:29;;;;;;;6.85;3.60;;;;;;;;;;10333184;28;20120;-85
2021/12/07 18:08:29;;;;;;;6.53;4.05;;;;;;;;;;10341758;28;20035;-85
2021/12/07 18:13:30;;;;;;;6.63;3.43;;;;;;;;;;10342887;28;20081;-86
2021/12/07 18:18:30;;;;;;;7.85;4.13;;;;;;;;;;10342819;28;20476;-84
2021/12/07 18:23:30;;;;;;;5.03;3.60;;;;;;;;;;10335550;28;20113;-83
2021/12/07 18:28:31;;;;;;;8.32;4.10;;;;;;;;;;10339960;28;20535;-84
2021/12/07 18:33:34;;;;;;;7.30;3.60;;;;;;;;;;10341467;28;20061;-87
2021/12/07 18:38:40;;;;;;;7.85;3.88;;;;;;;;;;10344809;28;20053;-88
2021/12/07 18:43:43;;;;;;;10.07;3.92;;;;;;;;;;10345524;28;20066;-88
2021/12/07 18:48:44;;;;;;;8.52;3.83;;;;;;;;;;10307435;28;20030;-89
2021/12/07 18:53:45;;;;;;;8.38;4.10;;;;;;;;;;10332093;28;20054;-88
2021/12/07 18:58:46;;;;;;;9.40;4.05;;;;;;;;;;10333048;28;20094;-89
2021/12/07 19:03:47;;;;;;;8.65;3.90;;;;;;;;;;10333359;28;20030;-89
2021/12/07 19:08:47;;;;;;;5.00;4.07;;;;;;;;;;10331582;28;20447;-88
2021/12/07 19:13:48;;;;;;;7.00;3.85;;;;;;;;;;10313330;28;20404;-90
2021/12/07 19:18:49;;;;;;;8.13;3.72;;;;;;;;;;10332314;28;20038;-91
2021/12/07 19:23:49;;;;;;;12.90;5.18;;;;;;;;;;10333420;28;20042;-90
2021/12/07 19:28:50;;;;;;;12.63;4.93;;;;;;;;;;10329928;28;20034;-89
2021/12/07 19:33:52;;;;;;;10.98;4.72;;;;;;;;;;10332311;28;20460;-90
2021/12/07 19:38:52;;;;;;;13.40;5.40;;;;;;;;;;10331562;28;20121;-90
2021/12/07 19:43:53;;;;;;;10.05;5.00;;;;;;;;;;10314315;28;20061;-90
2021/12/07 19:48:54;;;;;;;10.23;5.50;;;;;;;;;;10316043;28;20034;-90
2021/12/07 19:53:59;;;;;;;10.88;5.63;;;;;;;;;;10348583;28;20392;-91
2021/12/07 19:59:00;;;;;;;19.75;5.63;;;;;;;;;;10292289;28;20133;-82
2021/12/07 20:04:02;;;;;;;27.60;8.25;;;;;;;;;;10351343;28;20461;-89
2021/12/07 20:09:07;;;;;;;24.08;7.85;;;;;;;;;;10339054;28;20085;-88
2021/12/07 20:14:17;;;;;;;24.27;8.93;;;;;;;;;;10332285;28;20122;-88
2021/12/07 20:19:18;;;;;;;20.95;7.47;;;;;;;;;;10333137;28;20030;-89
2021/12/07 20:24:19;;;;;;;21.80;8.88;;;;;;;;;;10336526;28;20030;-89
2021/12/07 20:29:20;;;;;;;17.73;7.25;;;;;;;;;;10339495;28;20129;-90
2021/12/07 20:34:20;;;;;;;17.80;8.65;;;;;;;;;;10342861;28;20125;-85
2021/12/07 20:39:21;;;;;;;16.50;7.38;;;;;;;;;;10333048;28;20105;-83
2021/12/07 20:44:21;;;;;;;17.50;7.90;;;;;;;;;;10332012;28;20121;-85
2021/12/07 20:49:23;;;;;;;19.48;8.13;;;;;;;;;;10340841;28;20373;-83
2021/12/07 20:54:23;;;;;;;25.80;8.05;;;;;;;;;;10322441;28;20031;-85
2021/12/07 20:59:24;;;;;;;20.45;7.45;;;;;;;;;;10341482;28;20038;-85
2021/12/07 21:04:24;;;;;;;17.83;7.88;;;;;;;;;;10336661;28;20038;-85
2021/12/07 21:09:25;;;;;;;18.00;7.38;;;;;;;;;;10318321;28;20081;-85
2021/12/07 21:14:26;;;;;;;22.33;7.97;;;;;;;;;;10338257;28;20034;-85
2021/12/07 21:19:26;;;;;;;15.30;7.03;;;;;;;;;;10338704;28;20030;-84
2021/12/07 21:24:26;;;;;;;18.25;6.93;;;;;;;;;;10321164;28;20030;-85
2021/12/07 21:29:27;;;;;;;13.97;6.63;;;;;;;;;;10334562;28;20421;-85
2021/12/07 21:34:28;;;;;;;15.02;7.65;;;;;;;;;;10320809;28;20432;-84
2021/12/07 21:39:29;;;;;;;17.92;7.25;;;;;;;;;;10317892;28;20057;-84
2021/12/07 21:44:30;;;;;;;19.08;7.68;;;;;;;;;;10305524;28;20034;-84
2021/12/07 21:49:30;;;;;;;17.92;7.68;;;;;;;;;;10320275;28;20045;-84
2021/12/07 21:54:31;;;;;;;19.73;8.18;;;;;;;;;;10337409;28;20112;-84
2021/12/07 21:59:31;;;;;;;19.25;8.40;;;;;;;;;;10337383;28;20093;-84
2021/12/07 22:04:33;;;;;;;21.98;8.52;;;;;;;;;;10332427;28;20054;-84
2021/12/07 22:09:33;;;;;;;18.45;8.20;;;;;;;;;;10337086;28;20022;-84
2021/12/07 22:14:34;;;;;;;28.48;8.13;;;;;;;;;;10320701;28;20044;-85
2021/12/07 22:19:34;;;;;;;20.30;8.35;;;;;;;;;;10325958;28;20094;-83
2021/12/07 22:24:35;;;;;;;14.20;8.40;;;;;;;;;;10341545;28;20034;-83
2021/12/07 22:29:37;;;;;;;17.55;7.80;;;;;;;;;;10336461;28;20468;-82
2021/12/07 22:34:38;;;;;;;14.13;7.75;;;;;;;;;;10328766;28;20033;-84
2021/12/07 22:39:39;;;;;;;19.95;8.73;;;;;;;;;;10339677;28;20030;-85
2021/12/07 22:44:39;;;;;;;14.98;7.68;;;;;;;;;;10337801;28;20034;-85
2021/12/07 22:49:42;;;;;;;16.93;7.10;;;;;;;;;;10330681;28;20105;-84
2021/12/07 22:54:43;;;;;;;17.13;7.95;;;;;;;;;;10340925;28;20459;-84
2021/12/07 22:59:43;;;;;;;15.55;7.72;;;;;;;;;;10338970;28;20030;-81
2021/12/07 23:04:44;;;;;;;15.95;7.43;;;;;;;;;;10336473;28;20030;-80
